Time;durP1;ratioP1;P1;durP2;ratioP2;P2;SDS_P1;SDS_P2;PMS_P1;PMS_P2;Temp;Humidity;BMP_temperature;BMP_pressure;BME280_temperature;BME280_humidity;BME280_pressure;Samples;Min_cycle;Max_cycle;Signal;HPM_P1;HPM_P2
2021/05/22 00:02:16;;;;;;;5.40;0.75;;;10.40;83.70;;;;;;4993102;28;20030;-69
2021/05/22 00:04:41;;;;;;;4.50;0.50;;;10.40;83.60;;;;;;4992139;28;20034;-69
2021/05/22 00:07:07;;;;;;;3.83;0.60;;;10.60;83.40;;;;;;4993137;28;20372;-69
2021/05/22 00:09:32;;;;;;;2.72;0.50;;;10.60;83.00;;;;;;4992016;28;20484;-69
2021/05/22 00:11:58;;;;;;;4.03;0.50;;;10.70;82.70;;;;;;4992019;28;20034;-69
2021/05/22 00:14:23;;;;;;;5.15;0.43;;;10.80;82.40;;;;;;4992381;28;20029;-69
2021/05/22 00:16:49;;;;;;;7.05;0.70;;;10.80;81.90;;;;;;4991479;28;20026;-69
2021/05/22 00:19:17;;;;;;;4.45;0.40;;;10.80;81.50;;;;;;4995133;28;20034;-70
2021/05/22 00:21:42;;;;;;;3.95;0.50;;;10.80;81.30;;;;;;4984483;28;20052;-69
2021/05/22 00:24:08;;;;;;;5.18;0.40;;;10.80;81.20;;;;;;4996989;28;20443;-68
2021/05/22 00:26:34;;;;;;;5.07;0.52;;;10.80;81.20;;;;;;4981207;28;20403;-69
2021/05/22 00:28:59;;;;;;;5.45;0.40;;;10.70;81.00;;;;;;4993560;28;20056;-69
2021/05/22 00:31:25;;;;;;;9.13;0.60;;;10.70;81.00;;;;;;4993621;28;20069;-68
2021/05/22 00:33:50;;;;;;;4.53;0.47;;;10.70;81.10;;;;;;4981072;28;20121;-68
2021/05/22 00:36:16;;;;;;;5.07;0.40;;;10.70;80.90;;;;;;4993481;28;20138;-69
2021/05/22 00:38:41;;;;;;;3.60;0.50;;;10.70;80.80;;;;;;4992743;28;20080;-68
2021/05/22 00:41:07;;;;;;;6.35;0.30;;;10.70;80.70;;;;;;4991115;28;20197;-68
2021/05/22 00:43:33;;;;;;;6.25;0.50;;;10.70;80.60;;;;;;4991966;28;20053;-68
2021/05/22 00:45:58;;;;;;;4.72;0.43;;;10.60;80.50;;;;;;4983565;28;20040;-68
2021/05/22 00:48:24;;;;;;;5.70;0.50;;;10.60;80.40;;;;;;5000128;28;20022;-69
2021/05/22 00:50:51;;;;;;;5.20;0.50;;;10.60;80.40;;;;;;4991065;28;20030;-68
2021/05/22 00:53:17;;;;;;;4.72;0.40;;;10.50;80.30;;;;;;4991114;28;20029;-68
2021/05/22 00:55:43;;;;;;;5.05;0.50;;;10.60;80.40;;;;;;4991448;28;20506;-68
2021/05/22 00:58:08;;;;;;;2.63;0.70;;;10.60;80.30;;;;;;4984073;28;20030;-68
2021/05/22 01:00:50;;;;;;;6.95;0.50;;;10.70;80.10;;;;;;4972306;28;20431;-68
2021/05/22 01:03:25;;;;;;;3.20;0.30;;;10.70;79.90;;;;;;4991425;28;20030;-69
2021/05/22 01:05:58;;;;;;;6.38;0.52;;;10.80;79.60;;;;;;4992131;28;20146;-68
2021/05/22 01:08:24;;;;;;;7.03;0.55;;;10.80;79.20;;;;;;4994130;28;20033;-68
2021/05/22 01:10:58;;;;;;;2.65;0.30;;;10.90;79.10;;;;;;4984641;28;20037;-68
2021/05/22 01:13:25;;;;;;;4.63;0.50;;;10.90;79.00;;;;;;4991244;28;20475;-68
2021/05/22 01:15:54;;;;;;;7.53;0.80;;;10.90;78.90;;;;;;4996872;28;21899;-69
2021/05/22 01:18:22;;;;;;;5.80;0.30;;;10.90;78.80;;;;;;4991430;28;20040;-69
2021/05/22 01:20:57;;;;;;;2.97;0.30;;;10.90;78.60;;;;;;4999154;28;20034;-68
2021/05/22 01:23:40;;;;;;;2.95;0.38;;;10.90;78.60;;;;;;4990419;28;20025;-68
2021/05/22 01:26:06;;;;;;;;;;;10.90;78.60;;;;;;4999906;28;20236;-68
2021/05/22 01:28:34;;;;;;;4.93;0.50;;;10.90;78.50;;;;;;4990981;28;19926;-68
2021/05/22 01:31:01;;;;;;;5.55;0.95;;;10.90;78.70;;;;;;4990709;28;20030;-68
2021/05/22 01:33:27;;;;;;;6.57;0.60;;;10.90;78.70;;;;;;4991639;28;20117;-68
2021/05/22 01:35:53;;;;;;;5.60;0.52;;;10.90;78.70;;;;;;4992854;28;20034;-68
2021/05/22 01:38:19;;;;;;;4.53;0.52;;;10.90;78.80;;;;;;4992994;28;20499;-69
2021/05/22 01:40:45;;;;;;;4.30;0.40;;;10.90;78.90;;;;;;4990752;28;20035;-69
2021/05/22 01:43:11;;;;;;;4.53;0.40;;;10.80;78.80;;;;;;4990112;28;20026;-68
2021/05/22 01:45:43;;;;;;;5.63;0.43;;;10.80;78.90;;;;;;4992358;28;20045;-68
2021/05/22 01:48:13;;;;;;;2.25;0.50;;;10.80;79.00;;;;;;4978629;28;20398;-69
2021/05/22 01:50:43;;;;;;;5.13;0.50;;;10.80;79.10;;;;;;4995243;28;20042;-69
2021/05/22 01:53:12;;;;;;;4.18;0.68;;;10.80;79.30;;;;;;4990337;28;20040;-69
2021/05/22 01:55:39;;;;;;;5.85;0.70;;;10.80;79.40;;;;;;4993008;28;20026;-68
2021/05/22 01:58:06;;;;;;;6.00;0.68;;;10.80;79.30;;;;;;4990319;28;20121;-69
2021/05/22 02:00:32;;;;;;;4.57;0.35;;;10.80;79.30;;;;;;4991613;28;20036;-69
2021/05/22 02:03:11;;;;;;;3.60;0.50;;;10.80;79.40;;;;;;4990424;28;20036;-69
2021/05/22 02:05:38;;;;;;;5.85;0.43;;;10.80;79.40;;;;;;4991010;28;20921;-70
2021/05/22 02:08:11;;;;;;;3.10;0.40;;;10.80;80.10;;;;;;4993646;28;21459;-69
2021/05/22 02:10:37;;;;;;;3.03;0.32;;;10.80;79.50;;;;;;4980618;28;20030;-69
2021/05/22 02:13:04;;;;;;;6.18;0.70;;;10.80;79.50;;;;;;4990708;28;20083;-69
2021/05/22 02:15:31;;;;;;;6.82;0.43;;;10.80;79.50;;;;;;4992392;28;20062;-69
2021/05/22 02:17:57;;;;;;;5.35;0.60;;;10.90;79.50;;;;;;4982640;28;20032;-69
2021/05/22 02:20:25;;;;;;;4.47;0.40;;;10.90;80.10;;;;;;4994124;28;20038;-68
2021/05/22 02:22:52;;;;;;;3.28;0.30;;;10.90;79.50;;;;;;4990177;28;20400;-69
2021/05/22 02:25:19;;;;;;;2.55;0.30;;;10.90;79.80;;;;;;4990220;28;20026;-69
2021/05/22 02:27:46;;;;;;;2.88;0.40;;;10.90;79.80;;;;;;4990924;28;20545;-69
2021/05/22 02:30:14;;;;;;;3.30;0.35;;;10.90;80.00;;;;;;4989811;28;20080;-69
2021/05/22 02:32:43;;;;;;;3.95;0.35;;;10.90;80.10;;;;;;4993916;28;20018;-69
2021/05/22 02:35:10;;;;;;;1.23;0.20;;;10.90;80.20;;;;;;5000398;28;20156;-68
2021/05/22 02:37:36;;;;;;;6.05;0.40;;;10.90;80.30;;;;;;4993905;28;20026;-67
2021/05/22 02:40:10;;;;;;;3.08;0.30;;;10.80;80.20;;;;;;4990455;28;20060;-67
2021/05/22 02:42:37;;;;;;;4.95;0.95;;;10.90;80.20;;;;;;4983399;28;20093;-67
2021/05/22 02:45:07;;;;;;;7.57;0.40;;;10.90;80.30;;;;;;4991955;28;20755;-67
2021/05/22 02:47:34;;;;;;;3.88;0.38;;;10.90;80.40;;;;;;4992315;28;20044;-67
2021/05/22 02:50:06;;;;;;;2.17;0.25;;;10.90;80.50;;;;;;4989184;28;20062;-67
2021/05/22 02:52:34;;;;;;;2.60;0.30;;;10.90;80.60;;;;;;4990417;28;20054;-67
2021/05/22 02:55:02;;;;;;;6.22;0.50;;;10.90;81.10;;;;;;4980155;28;20038;-67
2021/05/22 02:57:28;;;;;;;2.58;0.40;;;10.90;81.50;;;;;;4989534;28;20056;-67
2021/05/22 02:59:55;;;;;;;6.95;0.95;;;10.80;81.70;;;;;;4997628;28;20026;-67
2021/05/22 03:02:21;;;;;;;5.03;0.32;;;10.80;81.70;;;;;;4989632;28;20866;-67
2021/05/22 03:04:49;;;;;;;4.38;0.30;;;10.80;81.70;;;;;;4991101;28;20034;-67
2021/05/22 03:07:15;;;;;;;2.13;0.57;;;10.80;82.20;;;;;;4993454;28;20037;-67
2021/05/22 03:09:41;;;;;;;3.53;0.50;;;10.80;81.50;;;;;;4993276;28;20507;-67
2021/05/22 03:12:07;;;;;;;2.28;0.30;;;10.80;81.20;;;;;;4989555;28;20040;-67
2021/05/22 03:14:33;;;;;;;4.65;0.30;;;10.80;81.20;;;;;;4990814;28;20760;-67
2021/05/22 03:16:58;;;;;;;5.65;0.32;;;10.80;81.00;;;;;;4982050;28;20076;-68
2021/05/22 03:19:24;;;;;;;4.85;0.30;;;10.90;80.90;;;;;;4991389;28;20082;-67
2021/05/22 03:21:49;;;;;;;4.20;0.30;;;10.90;81.60;;;;;;4988785;28;20033;-67
2021/05/22 03:24:15;;;;;;;2.30;0.30;;;10.90;80.80;;;;;;4989733;28;20039;-68
2021/05/22 03:26:41;;;;;;;6.07;0.40;;;10.90;80.70;;;;;;4992845;28;20083;-67
2021/05/22 03:29:06;;;;;;;2.20;0.20;;;10.90;80.60;;;;;;4988591;28;20105;-68
2021/05/22 03:31:32;;;;;;;3.22;0.30;;;10.90;80.60;;;;;;4988879;28;20054;-67
2021/05/22 03:33:57;;;;;;;4.53;0.20;;;10.90;80.40;;;;;;4978070;28;20065;-67
2021/05/22 03:36:23;;;;;;;2.88;0.20;;;10.90;80.50;;;;;;4994311;28;20080;-69
2021/05/22 03:38:49;;;;;;;3.35;0.22;;;11.00;80.60;;;;;;4992057;28;20037;-68
2021/05/22 03:41:14;;;;;;;3.20;0.30;;;11.00;80.60;;;;;;4976446;28;20885;-68
2021/05/22 03:43:40;;;;;;;5.57;0.38;;;11.00;80.70;;;;;;4988868;28;20030;-68
2021/05/22 03:46:05;;;;;;;2.22;0.32;;;11.00;80.80;;;;;;4994594;28;20104;-69
2021/05/22 03:48:31;;;;;;;5.07;0.30;;;11.00;80.90;;;;;;4988408;28;20022;-68
2021/05/22 03:50:57;;;;;;;3.22;0.15;;;11.00;80.90;;;;;;4990115;28;20073;-69
2021/05/22 03:53:23;;;;;;;3.28;0.20;;;11.00;81.00;;;;;;4992922;28;20036;-69
2021/05/22 03:55:49;;;;;;;2.70;0.32;;;11.00;81.00;;;;;;4992154;28;20031;-69
2021/05/22 03:58:14;;;;;;;5.45;0.20;;;11.10;80.90;;;;;;4989343;28;22310;-68
2021/05/22 04:00:40;;;;;;;4.38;0.50;;;11.00;81.10;;;;;;4991642;28;20034;-68
2021/05/22 04:03:06;;;;;;;3.28;0.30;;;11.10;81.00;;;;;;4989996;28;20100;-68
2021/05/22 04:05:33;;;;;;;5.18;0.28;;;11.10;81.10;;;;;;4978717;28;20117;-68
2021/05/22 04:07:59;;;;;;;2.72;0.30;;;11.10;81.00;;;;;;4990322;28;20109;-68
2021/05/22 04:10:25;;;;;;;2.47;0.30;;;11.10;81.10;;;;;;4990734;28;20053;-69
2021/05/22 04:12:50;;;;;;;4.45;0.30;;;11.10;81.20;;;;;;4994357;28;20065;-68
2021/05/22 04:15:16;;;;;;;2.00;0.30;;;11.10;81.30;;;;;;4977456;28;20523;-68
2021/05/22 04:17:41;;;;;;;3.58;0.45;;;11.10;81.40;;;;;;4981749;28;20034;-69
2021/05/22 04:20:07;;;;;;;3.67;0.35;;;11.10;81.40;;;;;;4988047;28;20038;-69
2021/05/22 04:22:33;;;;;;;3.85;0.32;;;11.10;81.50;;;;;;4988231;28;20101;-69
2021/05/22 04:24:58;;;;;;;3.90;0.57;;;11.00;81.70;;;;;;4990707;28;20118;-69
2021/05/22 04:27:24;;;;;;;7.85;0.60;;;11.10;81.80;;;;;;4988136;28;20062;-69
2021/05/22 04:29:49;;;;;;;7.25;0.55;;;11.00;81.80;;;;;;4988596;28;20117;-69
2021/05/22 04:32:15;;;;;;;3.65;0.30;;;11.00;81.90;;;;;;4988464;28;20038;-69
2021/05/22 04:34:40;;;;;;;7.65;0.50;;;11.00;82.10;;;;;;4973537;28;20026;-68
2021/05/22 04:37:06;;;;;;;7.25;0.95;;;11.00;82.20;;;;;;4990346;28;20041;-69
2021/05/22 04:39:32;;;;;;;4.75;0.40;;;11.00;82.60;;;;;;4994888;28;20033;-68
2021/05/22 04:41:57;;;;;;;5.35;0.30;;;11.00;82.90;;;;;;4994582;28;20434;-69
2021/05/22 04:44:23;;;;;;;4.15;0.40;;;11.00;83.20;;;;;;4992653;28;20551;-69
2021/05/22 04:46:49;;;;;;;4.22;0.50;;;11.00;83.80;;;;;;4998566;28;20038;-69
2021/05/22 04:49:14;;;;;;;3.83;0.50;;;10.90;84.00;;;;;;4992696;28;20026;-69
2021/05/22 04:51:40;;;;;;;2.88;0.40;;;10.90;84.40;;;;;;4992478;28;20391;-69
2021/05/22 04:54:08;;;;;;;4.35;0.50;;;10.80;84.90;;;;;;4992175;28;20030;-69
2021/05/22 04:56:34;;;;;;;5.43;0.75;;;10.80;85.00;;;;;;4986351;28;20423;-69
2021/05/22 04:59:00;;;;;;;6.55;0.80;;;10.80;85.20;;;;;;4980745;28;20083;-69
2021/05/22 05:01:26;;;;;;;5.05;0.55;;;10.80;85.30;;;;;;4986471;28;20030;-69
2021/05/22 05:03:52;;;;;;;5.43;0.40;;;10.80;85.50;;;;;;4996498;28;20126;-69
2021/05/22 05:06:18;;;;;;;5.30;0.50;;;10.80;85.70;;;;;;4992983;28;20033;-69
2021/05/22 05:08:43;;;;;;;5.57;0.50;;;10.80;86.10;;;;;;4997350;28;20030;-69
2021/05/22 05:11:09;;;;;;;9.23;1.02;;;10.70;86.50;;;;;;4984904;28;20033;-69
2021/05/22 05:13:34;;;;;;;5.65;0.55;;;10.80;87.20;;;;;;4991090;28;20034;-69
2021/05/22 05:16:01;;;;;;;7.38;0.90;;;10.70;87.10;;;;;;4992115;28;20041;-69
2021/05/22 05:18:26;;;;;;;7.97;0.43;;;10.70;87.50;;;;;;4991279;28;20063;-70
2021/05/22 05:20:52;;;;;;;6.30;0.70;;;10.70;87.60;;;;;;4991727;28;20511;-68
2021/05/22 05:23:17;;;;;;;4.88;0.47;;;10.70;87.80;;;;;;4992750;28;20030;-69
2021/05/22 05:25:43;;;;;;;3.88;0.40;;;10.60;88.20;;;;;;4999664;28;20480;-69
2021/05/22 05:28:08;;;;;;;3.88;0.40;;;10.60;88.50;;;;;;4998534;28;20049;-69
2021/05/22 05:30:34;;;;;;;9.48;1.10;;;10.60;89.10;;;;;;5013523;28;20049;-69
2021/05/22 05:32:59;;;;;;;5.80;0.50;;;10.50;89.20;;;;;;5008335;28;20026;-69
2021/05/22 05:35:25;;;;;;;4.22;0.30;;;10.50;89.60;;;;;;5009507;28;20034;-69
2021/05/22 05:37:51;;;;;;;5.20;0.60;;;10.50;89.60;;;;;;5011455;28;20034;-69
2021/05/22 05:40:19;;;;;;;6.40;0.50;;;10.50;89.70;;;;;;4990269;28;20061;-69
2021/05/22 05:42:51;;;;;;;5.85;0.45;;;10.50;89.90;;;;;;5008329;28;20029;-69
2021/05/22 05:45:17;;;;;;;2.95;0.40;;;10.50;90.00;;;;;;5025614;28;20087;-68
2021/05/22 05:47:43;;;;;;;5.82;0.40;;;10.50;90.10;;;;;;5002237;28;20109;-67
2021/05/22 05:50:09;;;;;;;5.80;0.52;;;10.50;90.10;;;;;;4987243;28;20160;-66
2021/05/22 05:52:34;;;;;;;4.22;0.45;;;10.50;90.40;;;;;;5008008;28;20033;-67
2021/05/22 05:55:00;;;;;;;7.90;0.63;;;10.50;90.40;;;;;;5008846;28;20031;-67
2021/05/22 05:57:25;;;;;;;4.28;0.45;;;10.50;90.50;;;;;;5007735;28;20022;-67
2021/05/22 05:59:51;;;;;;;6.03;0.38;;;10.50;90.60;;;;;;4988175;28;20159;-67
2021/05/22 06:02:16;;;;;;;3.90;0.40;;;10.50;90.70;;;;;;5004384;28;20058;-67
2021/05/22 06:04:42;;;;;;;9.75;0.60;;;10.50;90.90;;;;;;5009366;28;20022;-68
2021/05/22 06:07:07;;;;;;;6.32;0.50;;;10.50;91.00;;;;;;5005650;28;20026;-68
2021/05/22 06:09:33;;;;;;;6.60;0.70;;;10.50;91.10;;;;;;5007283;28;20064;-68
2021/05/22 06:11:59;;;;;;;4.53;0.50;;;10.50;91.20;;;;;;4988166;28;20129;-67
2021/05/22 06:14:51;;;;;;;5.72;0.40;;;10.50;91.30;;;;;;5009455;28;20079;-68
2021/05/22 06:17:13;;;;;;;9.13;0.60;;;10.50;91.30;;;;;;4998711;28;20037;-68
2021/05/22 06:19:39;;;;;;;6.30;0.63;;;10.60;91.40;;;;;;4990436;28;20104;-68
2021/05/22 06:22:05;;;;;;;6.70;0.52;;;10.60;91.40;;;;;;5006102;28;20030;-68
2021/05/22 06:24:31;;;;;;;6.30;0.90;;;10.60;91.50;;;;;;5012752;28;20053;-67
2021/05/22 06:26:57;;;;;;;12.90;0.65;;;10.60;91.50;;;;;;4998796;28;20066;-67
2021/05/22 06:29:23;;;;;;;4.38;0.63;;;10.70;91.60;;;;;;4977400;28;20373;-67
2021/05/22 06:31:48;;;;;;;4.22;0.40;;;10.70;91.70;;;;;;5002963;28;20090;-67
2021/05/22 06:34:14;;;;;;;3.63;0.40;;;10.80;91.70;;;;;;5004520;28;20069;-67
2021/05/22 06:36:39;;;;;;;5.03;0.50;;;10.80;91.60;;;;;;5010375;28;20026;-68
2021/05/22 06:39:05;;;;;;;6.70;0.52;;;10.70;91.70;;;;;;5004575;28;20487;-67
2021/05/22 06:41:31;;;;;;;3.45;0.40;;;10.70;91.80;;;;;;5004184;28;20049;-67
2021/05/22 06:43:56;;;;;;;7.38;0.65;;;10.70;91.80;;;;;;5003650;28;20933;-67
2021/05/22 06:48:47;;;;;;;5.43;0.50;;;10.80;91.90;;;;;;5005219;28;20065;-67
2021/05/22 06:51:13;;;;;;;6.13;0.45;;;10.80;91.90;;;;;;5002690;28;20385;-67
2021/05/22 06:53:38;;;;;;;3.83;0.40;;;10.80;92.00;;;;;;5004186;28;20079;-68
2021/05/22 06:56:04;;;;;;;3.50;0.40;;;10.70;91.90;;;;;;5006121;28;20026;-68
2021/05/22 06:58:30;;;;;;;6.32;0.40;;;10.70;92.00;;;;;;5002442;28;20432;-68
2021/05/22 07:00:57;;;;;;;4.40;0.50;;;10.70;92.10;;;;;;5000978;28;20030;-68
2021/05/22 07:03:23;;;;;;;7.50;0.60;;;10.70;92.10;;;;;;5010058;28;20484;-67
2021/05/22 07:05:49;;;;;;;3.83;0.40;;;10.70;92.30;;;;;;5002270;28;20034;-68
2021/05/22 07:08:16;;;;;;;9.90;0.60;;;10.70;92.20;;;;;;5004211;28;20026;-67
2021/05/22 07:10:42;;;;;;;2.83;0.50;;;10.60;92.20;;;;;;5008930;28;20087;-67
2021/05/22 07:13:07;;;;;;;4.78;0.52;;;10.70;92.30;;;;;;4993609;28;20030;-67
2021/05/22 07:15:33;;;;;;;6.20;0.45;;;10.70;92.30;;;;;;5006068;28;20022;-67
2021/05/22 07:17:59;;;;;;;6.78;0.40;;;10.70;92.20;;;;;;5010083;28;20547;-68
2021/05/22 07:20:25;;;;;;;4.88;0.30;;;10.70;92.20;;;;;;5008261;28;20544;-67
2021/05/22 07:22:51;;;;;;;3.65;0.50;;;10.70;92.10;;;;;;4993238;28;20075;-68
2021/05/22 07:25:20;;;;;;;4.13;0.50;;;10.70;92.30;;;;;;5010666;28;20022;-67
2021/05/22 07:27:48;;;;;;;3.83;0.50;;;10.70;92.30;;;;;;4999746;28;20054;-69
2021/05/22 07:30:17;;;;;;;6.18;0.60;;;10.70;92.40;;;;;;5002338;28;20026;-68
2021/05/22 07:32:43;;;;;;;4.28;0.40;;;10.70;92.50;;;;;;5000935;28;20578;-69
2021/05/22 07:35:13;;;;;;;4.38;0.30;;;10.70;92.50;;;;;;4986503;28;20121;-69
2021/05/22 07:37:40;;;;;;;3.35;0.35;;;10.70;92.60;;;;;;5005550;28;20018;-69
2021/05/22 07:40:07;;;;;;;3.08;0.30;;;10.70;92.70;;;;;;4996623;28;20437;-68
2021/05/22 07:42:33;;;;;;;5.43;0.60;;;10.80;92.90;;;;;;5001247;28;20030;-68
2021/05/22 07:44:59;;;;;;;3.50;0.45;;;10.90;93.00;;;;;;5001975;28;20034;-69
2021/05/22 07:47:25;;;;;;;2.40;0.40;;;10.90;92.90;;;;;;5000663;28;20076;-69
2021/05/22 07:49:52;;;;;;;1.42;0.30;;;11.00;92.90;;;;;;5000922;28;20026;-69
2021/05/22 07:52:24;;;;;;;5.70;0.50;;;11.20;92.90;;;;;;5001562;28;20026;-68
2021/05/22 07:54:49;;;;;;;2.63;0.50;;;11.20;92.60;;;;;;4990244;28;20383;-69
2021/05/22 07:57:16;;;;;;;3.83;0.50;;;11.30;92.70;;;;;;5003718;28;20030;-68
2021/05/22 07:59:42;;;;;;;2.20;0.30;;;11.30;92.80;;;;;;5002704;28;20057;-68
2021/05/22 08:02:08;;;;;;;3.28;0.40;;;11.30;92.60;;;;;;4993771;28;20062;-69
2021/05/22 08:04:35;;;;;;;4.30;0.30;;;11.30;92.60;;;;;;4989184;28;20041;-69
2021/05/22 08:07:02;;;;;;;2.63;0.40;;;11.30;92.50;;;;;;4989547;28;20022;-68
2021/05/22 08:09:28;;;;;;;3.78;0.32;;;11.30;92.50;;;;;;4987026;28;20030;-69
2021/05/22 08:11:53;;;;;;;3.83;0.40;;;11.20;92.50;;;;;;5006748;28;20455;-69
2021/05/22 08:14:19;;;;;;;1.98;0.30;;;11.20;92.60;;;;;;5009689;28;20204;-69
2021/05/22 08:16:45;;;;;;;4.20;0.40;;;11.10;92.60;;;;;;5005564;28;20040;-68
2021/05/22 08:19:12;;;;;;;2.00;0.30;;;11.10;92.70;;;;;;5004700;28;20029;-69
2021/05/22 08:21:38;;;;;;;3.03;0.35;;;11.10;92.80;;;;;;5005818;28;20064;-68
2021/05/22 08:24:04;;;;;;;2.13;0.32;;;11.20;93.00;;;;;;5007504;28;20022;-68
2021/05/22 08:26:30;;;;;;;7.63;0.95;;;11.20;93.00;;;;;;4990427;28;20066;-68
2021/05/22 08:28:55;;;;;;;4.60;0.40;;;11.30;93.20;;;;;;5006008;28;20072;-69
2021/05/22 08:31:21;;;;;;;5.82;0.75;;;11.30;93.10;;;;;;5004482;28;20036;-68
2021/05/22 08:33:47;;;;;;;3.17;0.40;;;11.30;93.10;;;;;;4999824;28;20026;-68
2021/05/22 08:36:13;;;;;;;2.95;0.40;;;11.20;93.20;;;;;;5003682;28;20026;-69
2021/05/22 08:38:42;;;;;;;2.70;0.35;;;11.20;93.30;;;;;;4988852;28;20484;-69
2021/05/22 08:41:08;;;;;;;2.63;0.30;;;11.20;93.20;;;;;;5005361;28;20034;-67
2021/05/22 08:43:34;;;;;;;4.95;0.40;;;11.30;93.20;;;;;;5012470;28;20049;-68
2021/05/22 08:46:00;;;;;;;2.47;0.40;;;11.20;93.20;;;;;;5013518;28;20049;-68
2021/05/22 08:48:26;;;;;;;3.85;0.40;;;11.20;93.20;;;;;;5002847;28;20073;-68
2021/05/22 08:50:51;;;;;;;2.13;0.40;;;11.20;93.30;;;;;;5005367;28;20034;-68
2021/05/22 08:53:17;;;;;;;3.45;0.47;;;11.30;93.30;;;;;;5006726;28;20021;-69
2021/05/22 08:55:43;;;;;;;2.90;0.50;;;11.30;93.40;;;;;;5011320;28;20034;-69
2021/05/22 08:58:09;;;;;;;4.88;0.50;;;11.40;93.50;;;;;;4999274;28;20075;-66
2021/05/22 09:00:39;;;;;;;4.55;0.93;;;11.40;93.50;;;;;;4986522;28;20041;-66
2021/05/22 09:03:06;;;;;;;2.67;0.50;;;11.50;93.50;;;;;;5002568;28;20037;-69
2021/05/22 09:05:32;;;;;;;5.10;0.80;;;11.50;93.50;;;;;;5002369;28;20030;-67
2021/05/22 09:08:11;;;;;;;5.68;0.80;;;11.50;93.40;;;;;;4999848;28;20025;-67
2021/05/22 09:10:39;;;;;;;2.90;0.70;;;11.50;93.30;;;;;;4996607;28;20030;-67
2021/05/22 09:13:10;;;;;;;5.05;1.00;;;11.50;93.10;;;;;;4982863;28;20042;-67
2021/05/22 09:15:41;;;;;;;2.83;0.70;;;11.50;93.20;;;;;;5006950;28;20109;-67
2021/05/22 09:18:11;;;;;;;4.55;0.75;;;11.50;93.40;;;;;;4999044;28;20018;-67
2021/05/22 09:20:46;;;;;;;2.55;0.68;;;11.60;93.40;;;;;;5005539;28;20029;-69
2021/05/22 09:23:23;;;;;;;3.45;0.80;;;11.70;93.40;;;;;;5002470;28;20104;-68
2021/05/22 09:26:01;;;;;;;3.00;0.85;;;11.80;93.10;;;;;;5006624;28;20036;-68
2021/05/22 09:28:30;;;;;;;4.85;0.80;;;11.80;93.20;;;;;;4989559;28;20042;-68
2021/05/22 09:30:56;;;;;;;3.72;0.63;;;11.90;93.10;;;;;;4992265;28;20061;-69
2021/05/22 09:33:33;;;;;;;5.30;0.80;;;11.90;93.00;;;;;;5008879;28;20037;-68
2021/05/22 09:36:07;;;;;;;4.70;0.68;;;12.00;92.70;;;;;;4985767;28;20121;-69
2021/05/22 09:38:41;;;;;;;3.63;0.70;;;12.00;92.60;;;;;;5007518;28;20024;-69
2021/05/22 09:41:26;;;;;;;4.45;0.60;;;11.90;92.50;;;;;;4989123;28;20395;-68
2021/05/22 09:44:11;;;;;;;2.72;0.60;;;12.10;92.50;;;;;;4990650;28;20124;-69
2021/05/22 09:46:46;;;;;;;4.30;0.90;;;12.20;92.60;;;;;;4991999;28;20028;-69
2021/05/22 09:49:35;;;;;;;2.13;0.52;;;12.30;92.10;;;;;;5001480;28;20023;-69
2021/05/22 09:52:05;;;;;;;3.65;0.60;;;12.30;92.00;;;;;;5008248;28;20034;-70
2021/05/22 09:54:49;;;;;;;2.45;0.50;;;12.50;91.90;;;;;;4989070;28;20029;-68
2021/05/22 09:57:20;;;;;;;1.55;0.40;;;12.60;91.60;;;;;;5016775;28;20028;-68
2021/05/22 10:00:27;;;;;;;3.50;0.60;;;12.60;91.50;;;;;;5012672;28;20479;-68
2021/05/22 10:03:01;;;;;;;2.58;0.70;;;12.70;91.30;;;;;;5006764;28;20034;-70
2021/05/22 10:05:32;;;;;;;2.13;0.90;;;12.60;90.90;;;;;;4995653;28;20033;-70
2021/05/22 10:07:59;;;;;;;2.67;0.73;;;12.60;91.00;;;;;;5006410;28;20163;-69
2021/05/22 10:10:48;;;;;;;3.22;0.60;;;12.50;91.00;;;;;;4997668;28;20236;-69
2021/05/22 10:13:15;;;;;;;1.90;0.68;;;12.60;91.10;;;;;;4999539;28;20114;-69
2021/05/22 10:15:42;;;;;;;4.28;0.85;;;12.60;91.20;;;;;;5014926;28;20038;-68
2021/05/22 10:18:09;;;;;;;4.60;0.68;;;12.70;91.00;;;;;;4991110;28;20423;-68
2021/05/22 10:20:34;;;;;;;4.60;0.93;;;12.70;91.10;;;;;;4993302;28;20078;-68
2021/05/22 10:23:00;;;;;;;4.32;0.70;;;12.80;90.90;;;;;;5008722;28;20657;-68
2021/05/22 10:25:27;;;;;;;2.13;0.50;;;12.90;91.00;;;;;;5001757;28;20088;-69
2021/05/22 10:27:53;;;;;;;1.17;0.50;;;12.90;90.70;;;;;;5007095;28;20033;-69
2021/05/22 10:30:19;;;;;;;4.53;0.60;;;12.90;90.50;;;;;;5000653;28;20050;-68
2021/05/22 10:32:46;;;;;;;3.72;0.80;;;12.90;90.70;;;;;;5010179;28;20033;-68
2021/05/22 10:35:14;;;;;;;2.00;0.80;;;13.00;90.80;;;;;;5001768;28;20041;-69
2021/05/22 10:37:44;;;;;;;1.95;0.60;;;13.10;90.70;;;;;;5003719;28;20428;-69
2021/05/22 10:40:12;;;;;;;2.78;0.60;;;13.20;90.50;;;;;;5008769;28;20504;-68
2021/05/22 10:42:44;;;;;;;2.75;1.23;;;13.10;90.60;;;;;;5003013;28;20113;-69
2021/05/22 10:45:30;;;;;;;2.38;0.60;;;13.10;90.70;;;;;;5004389;28;20113;-68
2021/05/22 10:48:01;;;;;;;2.38;0.60;;;13.20;90.90;;;;;;5009966;28;20038;-68
2021/05/22 10:50:47;;;;;;;3.47;0.80;;;13.30;91.10;;;;;;5007889;28;20029;-69
2021/05/22 10:53:19;;;;;;;4.13;0.80;;;13.40;90.80;;;;;;4989679;28;20438;-68
2021/05/22 10:55:45;;;;;;;1.30;0.60;;;13.40;90.70;;;;;;5006926;28;20036;-68
2021/05/22 10:58:11;;;;;;;3.22;0.60;;;13.40;90.70;;;;;;5006858;28;20033;-68
2021/05/22 11:00:37;;;;;;;3.05;0.73;;;13.30;90.80;;;;;;5011357;28;20417;-69
2021/05/22 11:03:06;;;;;;;3.33;0.75;;;13.30;90.80;;;;;;5005416;28;20034;-69
2021/05/22 11:05:35;;;;;;;1.30;0.57;;;13.30;90.70;;;;;;4999885;28;20427;-68
2021/05/22 11:08:07;;;;;;;2.95;0.75;;;13.20;90.40;;;;;;5006776;28;20499;-68
2021/05/22 11:10:39;;;;;;;2.25;0.77;;;13.10;90.50;;;;;;5005441;28;20040;-68
2021/05/22 11:13:06;;;;;;;;;;;13.00;90.80;;;;;;4999871;28;20502;-68
2021/05/22 11:15:44;;;;;;;3.25;0.98;;;12.90;91.00;;;;;;5000324;28;20314;-68
2021/05/22 11:18:11;;;;;;;2.95;0.70;;;12.90;91.30;;;;;;5005785;28;20022;-68
2021/05/22 11:20:38;;;;;;;2.97;0.90;;;12.70;91.50;;;;;;5013238;28;20092;-68
2021/05/22 11:23:04;;;;;;;4.28;0.70;;;12.60;91.80;;;;;;5002813;28;20135;-68
2021/05/22 11:25:51;;;;;;;1.92;0.80;;;12.50;92.00;;;;;;5011786;28;20050;-69
2021/05/22 11:28:20;;;;;;;1.83;0.73;;;12.40;92.10;;;;;;5002046;28;20049;-68
2021/05/22 11:30:55;;;;;;;3.13;0.90;;;12.20;92.60;;;;;;5005511;28;20498;-68
2021/05/22 11:33:21;;;;;;;2.30;0.95;;;12.10;92.80;;;;;;5002234;28;20888;-68
2021/05/22 11:35:50;;;;;;;2.35;1.20;;;12.00;93.00;;;;;;4995676;28;20040;-68
2021/05/22 11:38:19;;;;;;;1.27;0.80;;;12.00;93.10;;;;;;5001135;28;20022;-68
2021/05/22 11:40:49;;;;;;;2.55;1.48;;;12.00;93.10;;;;;;5001454;28;20429;-68
2021/05/22 11:43:15;;;;;;;1.73;0.80;;;12.10;93.10;;;;;;4998126;28;20030;-67
2021/05/22 11:45:54;;;;;;;3.13;0.85;;;12.10;93.00;;;;;;5000202;28;20071;-67
2021/05/22 11:48:30;;;;;;;1.85;1.05;;;12.00;93.00;;;;;;5005255;28;20116;-68
2021/05/22 11:51:04;;;;;;;2.47;1.35;;;12.00;93.00;;;;;;4999357;28;20546;-67
2021/05/22 11:53:30;;;;;;;2.20;0.93;;;12.00;93.20;;;;;;5004232;28;20033;-67
2021/05/22 11:56:08;;;;;;;3.45;1.38;;;12.10;93.30;;;;;;5003439;28;20652;-67
2021/05/22 11:58:36;;;;;;;1.80;0.98;;;12.30;93.40;;;;;;5000933;28;20384;-67
2021/05/22 12:01:17;;;;;;;3.10;1.95;;;12.50;93.30;;;;;;5015406;28;20049;-67
2021/05/22 12:03:45;;;;;;;4.75;2.17;;;12.70;93.00;;;;;;5002311;28;20053;-67
2021/05/22 12:06:29;;;;;;;3.25;1.85;;;12.90;93.10;;;;;;5007439;28;20041;-67
2021/05/22 12:09:00;;;;;;;5.93;2.15;;;13.00;92.90;;;;;;4990699;28;20099;-67
2021/05/22 12:11:29;;;;;;;3.95;2.30;;;13.10;92.50;;;;;;4996547;28;20370;-68
2021/05/22 12:14:05;;;;;;;4.05;2.80;;;13.00;92.50;;;;;;4989427;28;20033;-68
2021/05/22 12:16:30;;;;;;;4.68;2.53;;;12.90;92.30;;;;;;4988769;28;20076;-69
2021/05/22 12:18:56;;;;;;;3.13;1.40;;;12.70;92.30;;;;;;5001489;28;20022;-69
2021/05/22 12:21:26;;;;;;;3.00;1.42;;;12.40;92.00;;;;;;5005430;28;20025;-69
2021/05/22 12:23:52;;;;;;;5.18;2.10;;;12.10;92.30;;;;;;4997613;28;20437;-69
2021/05/22 12:26:18;;;;;;;3.28;1.60;;;11.70;92.90;;;;;;5003194;28;20083;-70
2021/05/22 12:28:45;;;;;;;5.18;2.55;;;11.50;93.40;;;;;;5000634;28;20437;-69
2021/05/22 12:31:12;;;;;;;3.28;2.20;;;11.30;93.60;;;;;;5004599;28;20026;-69
2021/05/22 12:33:38;;;;;;;2.33;2.13;;;11.30;93.90;;;;;;4992802;28;20030;-69
2021/05/22 12:36:08;;;;;;;7.05;3.70;;;11.20;94.10;;;;;;5000256;28;20041;-70
2021/05/22 12:38:45;;;;;;;6.80;3.60;;;11.20;94.10;;;;;;4988728;28;20033;-70
2021/05/22 12:41:12;;;;;;;6.95;5.13;;;11.20;94.30;;;;;;4991122;28;20066;-70
2021/05/22 12:43:51;;;;;;;6.30;4.80;;;11.20;94.50;;;;;;5003971;28;20033;-69
2021/05/22 12:46:25;;;;;;;7.35;4.43;;;11.20;94.70;;;;;;5005247;28;20514;-70
2021/05/22 12:48:52;;;;;;;6.07;3.65;;;11.30;94.60;;;;;;5001589;28;20026;-69
2021/05/22 12:51:20;;;;;;;8.30;4.80;;;11.20;94.60;;;;;;5008444;28;20027;-69
2021/05/22 12:53:46;;;;;;;7.07;5.40;;;11.30;94.60;;;;;;5005676;28;20404;-70
2021/05/22 12:56:12;;;;;;;7.18;4.93;;;11.30;94.70;;;;;;5008487;28;20018;-70